LHPR Airport Information

Runway Information
Runway 12 Length 4757 ft width 98 ft
Elevation 418 ft Threshold 0 ft Heading 120
Runway 30 Length 4757 ft Width 98 ft
Elevation 426 ft Threshold 0 ft Heading 300
Runway 12L Length 3720 ft width 140 ft
Elevation 0 ft Threshold 0 ft Heading 119
Runway 30R Length 3720 ft Width 140 ft
Elevation 0 ft Threshold 0 ft Heading 299
Airport Frequencies
Type AAS Name AFIS Frequency 129.9 MHZ
Type INFO Name BUDAPEST I Frequency 125.5 MHZ
Airport Navaids
Type VOR-DME Name Gyor Frequency 115100 KHZ
Type NDB Name Gyor Frequency 354 KHZ
Airport Weather Information & NOTAM
ADDS - METARS form results

(0540 UTC 19 June 2019)
Data provider http://aviationweather.gov/metar/data/
 
METAR text: LHPR 190515Z 13004KT CAVOK 21/18 Q1014
Conditions at: LHPR (GYOR , HU) observed 0515 UTC 19 June 2019
Temperature: 21.0°C (70°F)
Dewpoint: 18.0°C (64°F) [RH = 83%]
Pressure (altimeter): 29.94 inches Hg (1014.0 mb)
Winds: from the SE (130 degrees) at 5 MPH (4 knots; 2.1 m/s)
Visibility: 6 or more miles (10+ km)
Ceiling: ceiling and visibility are OK
Clouds: unknown
Weather: no significant weather observed at this time

METAR text: LHPR 190445Z VRB03KT 9999 FEW050TCU BKN200 19/18 Q1014
Conditions at: LHPR (GYOR , HU) observed 0445 UTC 19 June 2019
Temperature: 19.0°C (66°F)
Dewpoint: 18.0°C (64°F) [RH = 94%]
Pressure (altimeter): 29.94 inches Hg (1014.0 mb)
Winds: variable direction winds at 3 MPH (3 knots; 1.5 m/s)
Visibility: 6 or more miles (10+ km)
Ceiling: 20000 feet AGL
Clouds: few clouds at 5000 feet AGL
broken clouds at 20000 feet AGL
Weather: no significant weather observed at this time

Forecast for: LHPR (GYOR , HU)
Text: TAF LHPR 190515Z 1906/1915 VRB02KT 9999 SCT045 BKN200
Forecast period: 0600 to 1500 UTC 19 June 2019
Forecast type: FROM: standard forecast or significant change
Winds: variable direction winds at 2 MPH (2 knots; 1.0 m/s)
Visibility: 6 or more miles 10+ km)
Ceiling: 20000 feet AGL
Clouds: scattered clouds at 4500 feet AGL
broken clouds at 20000 feet AGL
Weather: no significant weather forecast for this period
Text: TEMPO 1906/1908 -SHRA SCT040TCU BKN200
Forecast period: 0600 to 0800 UTC 19 June 2019
Forecast type: TEMPORARY: The following changes expected for less than half the time period
Visibility: missing
Ceiling: 20000 feet AGL
Clouds: scattered clouds at 4000 feet AGL
broken clouds at 20000 feet AGL
Weather: -SHRA  (light rain showers)
Text: TEMPO 1908/1915 VRB20G35KT 3000 TSRA BKN030CB BKN200
Forecast period: 0800 to 1500 UTC 19 June 2019
Forecast type: TEMPORARY: The following changes expected for less than half the time period
Winds: variable direction winds at 23 MPH (20 knots; 10.3 m/s)
gusting to 40 MPH (35 knots; 18.0 m/s)
Visibility: 1.86 miles (2.99 km)
Ceiling: 3000 feet AGL
Clouds: broken clouds at 3000 feet AGL
broken clouds at 20000 feet AGL
Weather: TSRA  (rain associated with thunderstorm(s))